sensor_id;sensor_type;location;lat;lon;timestamp;P1;durP1;ratioP1;P2;durP2;ratioP2
42284;SDS011;27942;47.510;18.966;2022-07-06T00:01:15;2.03;;;1.83;;
42284;SDS011;27942;47.510;18.966;2022-07-06T00:03:41;2.80;;;1.92;;
42284;SDS011;27942;47.510;18.966;2022-07-06T00:06:06;3.13;;;2.13;;
42284;SDS011;27942;47.510;18.966;2022-07-06T00:08:31;3.13;;;2.13;;
42284;SDS011;27942;47.510;18.966;2022-07-06T00:10:57;1.98;;;1.67;;
42284;SDS011;27942;47.510;18.966;2022-07-06T00:13:22;2.95;;;1.70;;
42284;SDS011;27942;47.510;18.966;2022-07-06T00:15:47;3.72;;;2.08;;
42284;SDS011;27942;47.510;18.966;2022-07-06T00:18:12;3.08;;;2.08;;
42284;SDS011;27942;47.510;18.966;2022-07-06T00:20:38;4.03;;;2.20;;
42284;SDS011;27942;47.510;18.966;2022-07-06T00:23:03;3.35;;;2.00;;
42284;SDS011;27942;47.510;18.966;2022-07-06T00:25:28;2.20;;;1.33;;
42284;SDS011;27942;47.510;18.966;2022-07-06T00:27:53;2.55;;;1.77;;
42284;SDS011;27942;47.510;18.966;2022-07-06T00:30:19;2.90;;;1.92;;
42284;SDS011;27942;47.510;18.966;2022-07-06T00:32:44;3.53;;;2.00;;
42284;SDS011;27942;47.510;18.966;2022-07-06T00:35:09;2.33;;;1.58;;
42284;SDS011;27942;47.510;18.966;2022-07-06T00:37:34;2.78;;;2.25;;
42284;SDS011;27942;47.510;18.966;2022-07-06T00:40:00;2.63;;;1.75;;
42284;SDS011;27942;47.510;18.966;2022-07-06T00:42:25;3.05;;;2.03;;
42284;SDS011;27942;47.510;18.966;2022-07-06T00:44:50;3.55;;;1.85;;
42284;SDS011;27942;47.510;18.966;2022-07-06T00:47:15;2.22;;;1.50;;
42284;SDS011;27942;47.510;18.966;2022-07-06T00:49:41;2.13;;;1.52;;
42284;SDS011;27942;47.510;18.966;2022-07-06T00:52:24;2.63;;;1.73;;
42284;SDS011;27942;47.510;18.966;2022-07-06T00:54:50;5.22;;;2.20;;
42284;SDS011;27942;47.510;18.966;2022-07-06T00:57:16;2.50;;;1.77;;
42284;SDS011;27942;47.510;18.966;2022-07-06T00:59:41;2.00;;;1.48;;
42284;SDS011;27942;47.510;18.966;2022-07-06T01:02:07;2.60;;;1.65;;
42284;SDS011;27942;47.510;18.966;2022-07-06T01:04:32;1.92;;;1.50;;
42284;SDS011;27942;47.510;18.966;2022-07-06T01:06:58;2.72;;;2.00;;
42284;SDS011;27942;47.510;18.966;2022-07-06T01:09:23;1.80;;;1.48;;
42284;SDS011;27942;47.510;18.966;2022-07-06T01:11:48;3.65;;;1.73;;
42284;SDS011;27942;47.510;18.966;2022-07-06T01:14:13;2.17;;;1.70;;
42284;SDS011;27942;47.510;18.966;2022-07-06T01:16:39;2.30;;;1.65;;
42284;SDS011;27942;47.510;18.966;2022-07-06T01:19:04;3.33;;;2.40;;
42284;SDS011;27942;47.510;18.966;2022-07-06T01:21:29;1.40;;;1.27;;
42284;SDS011;27942;47.510;18.966;2022-07-06T01:23:55;4.65;;;2.42;;
42284;SDS011;27942;47.510;18.966;2022-07-06T01:26:20;2.22;;;1.67;;
42284;SDS011;27942;47.510;18.966;2022-07-06T01:28:46;1.85;;;1.30;;
42284;SDS011;27942;47.510;18.966;2022-07-06T01:31:15;1.67;;;1.42;;
42284;SDS011;27942;47.510;18.966;2022-07-06T01:33:41;2.25;;;1.45;;
42284;SDS011;27942;47.510;18.966;2022-07-06T01:36:06;3.25;;;1.65;;
42284;SDS011;27942;47.510;18.966;2022-07-06T01:38:32;3.05;;;1.83;;
42284;SDS011;27942;47.510;18.966;2022-07-06T01:40:57;3.17;;;1.98;;
42284;SDS011;27942;47.510;18.966;2022-07-06T01:43:22;1.70;;;1.35;;
42284;SDS011;27942;47.510;18.966;2022-07-06T01:45:47;3.63;;;1.80;;
42284;SDS011;27942;47.510;18.966;2022-07-06T01:48:12;2.58;;;1.52;;
42284;SDS011;27942;47.510;18.966;2022-07-06T01:50:38;2.88;;;1.80;;
42284;SDS011;27942;47.510;18.966;2022-07-06T01:53:03;4.00;;;2.45;;
42284;SDS011;27942;47.510;18.966;2022-07-06T01:55:28;2.67;;;1.67;;
42284;SDS011;27942;47.510;18.966;2022-07-06T01:57:54;2.35;;;1.85;;
42284;SDS011;27942;47.510;18.966;2022-07-06T02:00:19;1.88;;;1.60;;
42284;SDS011;27942;47.510;18.966;2022-07-06T02:02:44;2.42;;;1.90;;
42284;SDS011;27942;47.510;18.966;2022-07-06T02:05:09;2.97;;;2.08;;
42284;SDS011;27942;47.510;18.966;2022-07-06T02:07:34;2.63;;;1.30;;
42284;SDS011;27942;47.510;18.966;2022-07-06T02:10:00;7.40;;;1.75;;
42284;SDS011;27942;47.510;18.966;2022-07-06T02:12:25;2.15;;;1.58;;
42284;SDS011;27942;47.510;18.966;2022-07-06T02:14:50;2.78;;;2.20;;
42284;SDS011;27942;47.510;18.966;2022-07-06T02:17:16;3.08;;;2.20;;
42284;SDS011;27942;47.510;18.966;2022-07-06T02:19:42;6.47;;;2.08;;
42284;SDS011;27942;47.510;18.966;2022-07-06T02:22:07;2.20;;;1.75;;
42284;SDS011;27942;47.510;18.966;2022-07-06T02:24:32;2.28;;;1.85;;
42284;SDS011;27942;47.510;18.966;2022-07-06T02:26:57;2.97;;;2.13;;
42284;SDS011;27942;47.510;18.966;2022-07-06T02:29:23;3.15;;;2.22;;
42284;SDS011;27942;47.510;18.966;2022-07-06T02:31:48;2.45;;;1.95;;
42284;SDS011;27942;47.510;18.966;2022-07-06T02:34:13;2.92;;;1.95;;
42284;SDS011;27942;47.510;18.966;2022-07-06T02:36:38;3.25;;;1.60;;
42284;SDS011;27942;47.510;18.966;2022-07-06T02:39:03;2.15;;;1.50;;
42284;SDS011;27942;47.510;18.966;2022-07-06T02:41:29;4.80;;;1.75;;
42284;SDS011;27942;47.510;18.966;2022-07-06T02:43:54;3.50;;;1.98;;
42284;SDS011;27942;47.510;18.966;2022-07-06T02:46:19;4.05;;;2.47;;
42284;SDS011;27942;47.510;18.966;2022-07-06T02:48:44;3.50;;;2.42;;
42284;SDS011;27942;47.510;18.966;2022-07-06T02:51:10;2.40;;;1.90;;
42284;SDS011;27942;47.510;18.966;2022-07-06T02:53:35;3.78;;;2.05;;
42284;SDS011;27942;47.510;18.966;2022-07-06T02:56:00;1.90;;;1.63;;
42284;SDS011;27942;47.510;18.966;2022-07-06T02:58:25;2.92;;;1.80;;
42284;SDS011;27942;47.510;18.966;2022-07-06T03:00:51;2.85;;;2.20;;
42284;SDS011;27942;47.510;18.966;2022-07-06T03:03:16;4.00;;;2.40;;
42284;SDS011;27942;47.510;18.966;2022-07-06T03:05:41;3.00;;;2.30;;
42284;SDS011;27942;47.510;18.966;2022-07-06T03:08:07;2.83;;;1.80;;
42284;SDS011;27942;47.510;18.966;2022-07-06T03:10:32;2.50;;;1.83;;
42284;SDS011;27942;47.510;18.966;2022-07-06T03:12:57;2.85;;;1.90;;
42284;SDS011;27942;47.510;18.966;2022-07-06T03:15:23;3.65;;;1.92;;
42284;SDS011;27942;47.510;18.966;2022-07-06T03:17:48;3.05;;;1.90;;
42284;SDS011;27942;47.510;18.966;2022-07-06T03:20:13;3.25;;;2.10;;
42284;SDS011;27942;47.510;18.966;2022-07-06T03:22:38;3.00;;;2.40;;
42284;SDS011;27942;47.510;18.966;2022-07-06T03:25:04;3.55;;;2.13;;
42284;SDS011;27942;47.510;18.966;2022-07-06T03:27:29;3.15;;;2.03;;
42284;SDS011;27942;47.510;18.966;2022-07-06T03:29:55;3.78;;;1.92;;
42284;SDS011;27942;47.510;18.966;2022-07-06T03:32:20;2.63;;;1.88;;
42284;SDS011;27942;47.510;18.966;2022-07-06T03:34:45;4.68;;;2.05;;
42284;SDS011;27942;47.510;18.966;2022-07-06T03:37:10;3.50;;;2.28;;
42284;SDS011;27942;47.510;18.966;2022-07-06T03:39:36;3.05;;;2.13;;
42284;SDS011;27942;47.510;18.966;2022-07-06T03:42:01;3.05;;;2.03;;
42284;SDS011;27942;47.510;18.966;2022-07-06T03:44:26;3.80;;;1.85;;
42284;SDS011;27942;47.510;18.966;2022-07-06T03:46:52;3.47;;;2.45;;
42284;SDS011;27942;47.510;18.966;2022-07-06T03:49:20;3.08;;;1.80;;
42284;SDS011;27942;47.510;18.966;2022-07-06T03:51:45;3.30;;;2.72;;
42284;SDS011;27942;47.510;18.966;2022-07-06T03:54:10;2.95;;;2.03;;
42284;SDS011;27942;47.510;18.966;2022-07-06T03:56:36;3.97;;;2.08;;
42284;SDS011;27942;47.510;18.966;2022-07-06T03:59:03;4.85;;;1.95;;
42284;SDS011;27942;47.510;18.966;2022-07-06T04:01:29;2.80;;;1.80;;
42284;SDS011;27942;47.510;18.966;2022-07-06T04:03:55;2.90;;;1.75;;
42284;SDS011;27942;47.510;18.966;2022-07-06T04:06:20;2.97;;;1.80;;
42284;SDS011;27942;47.510;18.966;2022-07-06T04:08:46;4.40;;;2.00;;
42284;SDS011;27942;47.510;18.966;2022-07-06T04:11:11;3.67;;;1.75;;
42284;SDS011;27942;47.510;18.966;2022-07-06T04:13:37;2.60;;;1.90;;
42284;SDS011;27942;47.510;18.966;2022-07-06T04:16:04;2.42;;;1.65;;
42284;SDS011;27942;47.510;18.966;2022-07-06T04:18:29;3.30;;;2.17;;
42284;SDS011;27942;47.510;18.966;2022-07-06T04:20:54;2.40;;;1.77;;
42284;SDS011;27942;47.510;18.966;2022-07-06T04:23:19;2.65;;;1.65;;
42284;SDS011;27942;47.510;18.966;2022-07-06T04:25:45;1.92;;;1.45;;
42284;SDS011;27942;47.510;18.966;2022-07-06T04:28:10;3.20;;;1.67;;
42284;SDS011;27942;47.510;18.966;2022-07-06T04:30:35;3.17;;;1.60;;
42284;SDS011;27942;47.510;18.966;2022-07-06T04:33:01;1.77;;;1.35;;
42284;SDS011;27942;47.510;18.966;2022-07-06T04:35:26;1.95;;;1.50;;
42284;SDS011;27942;47.510;18.966;2022-07-06T04:37:51;3.45;;;1.75;;
42284;SDS011;27942;47.510;18.966;2022-07-06T04:40:16;3.28;;;1.70;;
42284;SDS011;27942;47.510;18.966;2022-07-06T04:42:42;1.52;;;1.10;;
42284;SDS011;27942;47.510;18.966;2022-07-06T04:45:07;2.50;;;1.70;;
42284;SDS011;27942;47.510;18.966;2022-07-06T04:47:33;2.92;;;2.00;;
42284;SDS011;27942;47.510;18.966;2022-07-06T04:49:59;2.92;;;1.90;;
42284;SDS011;27942;47.510;18.966;2022-07-06T04:52:24;2.05;;;1.70;;
42284;SDS011;27942;47.510;18.966;2022-07-06T04:54:50;4.15;;;2.70;;
42284;SDS011;27942;47.510;18.966;2022-07-06T04:57:15;2.55;;;1.30;;
42284;SDS011;27942;47.510;18.966;2022-07-06T04:59:40;2.92;;;1.88;;
42284;SDS011;27942;47.510;18.966;2022-07-06T05:02:06;2.65;;;1.52;;
42284;SDS011;27942;47.510;18.966;2022-07-06T05:04:31;2.35;;;1.52;;
42284;SDS011;27942;47.510;18.966;2022-07-06T05:06:56;1.88;;;1.45;;
42284;SDS011;27942;47.510;18.966;2022-07-06T05:09:22;2.10;;;1.40;;
42284;SDS011;27942;47.510;18.966;2022-07-06T05:11:47;1.95;;;1.50;;
42284;SDS011;27942;47.510;18.966;2022-07-06T05:14:12;2.38;;;1.73;;
42284;SDS011;27942;47.510;18.966;2022-07-06T05:16:37;3.47;;;1.83;;
42284;SDS011;27942;47.510;18.966;2022-07-06T05:19:03;1.67;;;1.40;;
42284;SDS011;27942;47.510;18.966;2022-07-06T05:21:28;3.35;;;1.80;;
42284;SDS011;27942;47.510;18.966;2022-07-06T05:23:53;2.53;;;1.83;;
42284;SDS011;27942;47.510;18.966;2022-07-06T05:26:18;3.35;;;2.10;;
42284;SDS011;27942;47.510;18.966;2022-07-06T05:28:44;4.70;;;1.77;;
42284;SDS011;27942;47.510;18.966;2022-07-06T05:31:09;2.22;;;1.67;;
42284;SDS011;27942;47.510;18.966;2022-07-06T05:33:34;2.38;;;1.60;;
42284;SDS011;27942;47.510;18.966;2022-07-06T05:36:00;2.25;;;1.45;;
42284;SDS011;27942;47.510;18.966;2022-07-06T05:38:25;2.15;;;1.40;;
42284;SDS011;27942;47.510;18.966;2022-07-06T05:40:50;2.20;;;1.40;;
42284;SDS011;27942;47.510;18.966;2022-07-06T05:43:16;2.35;;;1.60;;
42284;SDS011;27942;47.510;18.966;2022-07-06T05:45:41;2.50;;;1.50;;
42284;SDS011;27942;47.510;18.966;2022-07-06T05:48:06;2.55;;;1.48;;
42284;SDS011;27942;47.510;18.966;2022-07-06T05:50:50;3.83;;;1.73;;
42284;SDS011;27942;47.510;18.966;2022-07-06T05:53:15;2.75;;;1.70;;
42284;SDS011;27942;47.510;18.966;2022-07-06T05:55:41;2.67;;;1.70;;
42284;SDS011;27942;47.510;18.966;2022-07-06T05:58:06;2.83;;;1.60;;
42284;SDS011;27942;47.510;18.966;2022-07-06T06:00:31;5.43;;;2.08;;
42284;SDS011;27942;47.510;18.966;2022-07-06T06:02:57;2.90;;;1.92;;
42284;SDS011;27942;47.510;18.966;2022-07-06T06:05:23;2.85;;;1.70;;
42284;SDS011;27942;47.510;18.966;2022-07-06T06:07:48;4.53;;;1.80;;
42284;SDS011;27942;47.510;18.966;2022-07-06T06:10:16;2.33;;;1.42;;
42284;SDS011;27942;47.510;18.966;2022-07-06T06:12:42;2.92;;;1.75;;
42284;SDS011;27942;47.510;18.966;2022-07-06T06:15:07;2.70;;;1.85;;
42284;SDS011;27942;47.510;18.966;2022-07-06T06:17:33;5.18;;;2.10;;
42284;SDS011;27942;47.510;18.966;2022-07-06T06:19:58;3.10;;;1.70;;
42284;SDS011;27942;47.510;18.966;2022-07-06T06:22:24;3.55;;;1.67;;
42284;SDS011;27942;47.510;18.966;2022-07-06T06:24:49;2.92;;;1.38;;
42284;SDS011;27942;47.510;18.966;2022-07-06T06:27:15;2.13;;;1.52;;
42284;SDS011;27942;47.510;18.966;2022-07-06T06:29:40;2.58;;;1.88;;
42284;SDS011;27942;47.510;18.966;2022-07-06T06:32:07;2.85;;;1.85;;
42284;SDS011;27942;47.510;18.966;2022-07-06T06:34:32;2.38;;;1.42;;
42284;SDS011;27942;47.510;18.966;2022-07-06T06:36:57;2.25;;;1.42;;
42284;SDS011;27942;47.510;18.966;2022-07-06T06:39:23;2.20;;;1.58;;
42284;SDS011;27942;47.510;18.966;2022-07-06T06:41:48;4.50;;;1.40;;
42284;SDS011;27942;47.510;18.966;2022-07-06T06:44:14;2.72;;;1.50;;
42284;SDS011;27942;47.510;18.966;2022-07-06T06:46:40;3.25;;;1.45;;
42284;SDS011;27942;47.510;18.966;2022-07-06T06:49:05;1.77;;;1.02;;
42284;SDS011;27942;47.510;18.966;2022-07-06T06:51:30;2.03;;;1.42;;
42284;SDS011;27942;47.510;18.966;2022-07-06T06:53:56;3.75;;;1.38;;
42284;SDS011;27942;47.510;18.966;2022-07-06T06:56:21;2.05;;;1.30;;
42284;SDS011;27942;47.510;18.966;2022-07-06T06:58:46;1.27;;;1.13;;
42284;SDS011;27942;47.510;18.966;2022-07-06T07:01:11;2.28;;;1.45;;
42284;SDS011;27942;47.510;18.966;2022-07-06T07:03:37;2.80;;;1.60;;
42284;SDS011;27942;47.510;18.966;2022-07-06T07:06:02;2.47;;;1.80;;
42284;SDS011;27942;47.510;18.966;2022-07-06T07:08:27;2.83;;;1.75;;
42284;SDS011;27942;47.510;18.966;2022-07-06T07:10:53;2.72;;;1.88;;
42284;SDS011;27942;47.510;18.966;2022-07-06T07:13:18;2.72;;;1.58;;
42284;SDS011;27942;47.510;18.966;2022-07-06T07:15:43;3.85;;;1.90;;
42284;SDS011;27942;47.510;18.966;2022-07-06T07:18:08;2.90;;;2.00;;
42284;SDS011;27942;47.510;18.966;2022-07-06T07:20:34;2.45;;;1.58;;
42284;SDS011;27942;47.510;18.966;2022-07-06T07:22:59;2.03;;;1.33;;
42284;SDS011;27942;47.510;18.966;2022-07-06T07:25:25;1.10;;;0.80;;
42284;SDS011;27942;47.510;18.966;2022-07-06T07:27:50;1.88;;;1.30;;
42284;SDS011;27942;47.510;18.966;2022-07-06T07:30:15;1.75;;;1.35;;
42284;SDS011;27942;47.510;18.966;2022-07-06T07:32:41;1.60;;;1.00;;
42284;SDS011;27942;47.510;18.966;2022-07-06T07:35:06;3.50;;;1.63;;
42284;SDS011;27942;47.510;18.966;2022-07-06T07:37:31;2.22;;;1.17;;
42284;SDS011;27942;47.510;18.966;2022-07-06T07:39:57;2.78;;;1.15;;
42284;SDS011;27942;47.510;18.966;2022-07-06T07:42:22;2.05;;;1.20;;
42284;SDS011;27942;47.510;18.966;2022-07-06T07:44:47;1.75;;;1.23;;
42284;SDS011;27942;47.510;18.966;2022-07-06T07:47:13;1.48;;;1.10;;
42284;SDS011;27942;47.510;18.966;2022-07-06T07:49:38;2.05;;;1.15;;
42284;SDS011;27942;47.510;18.966;2022-07-06T07:52:03;1.67;;;0.98;;
42284;SDS011;27942;47.510;18.966;2022-07-06T07:54:28;1.05;;;0.82;;
42284;SDS011;27942;47.510;18.966;2022-07-06T07:56:54;2.13;;;0.90;;
42284;SDS011;27942;47.510;18.966;2022-07-06T07:59:19;2.45;;;1.08;;
42284;SDS011;27942;47.510;18.966;2022-07-06T08:01:44;3.25;;;1.30;;
42284;SDS011;27942;47.510;18.966;2022-07-06T08:04:09;1.77;;;1.25;;
42284;SDS011;27942;47.510;18.966;2022-07-06T08:06:35;3.45;;;1.10;;
42284;SDS011;27942;47.510;18.966;2022-07-06T08:09:00;2.17;;;1.33;;
42284;SDS011;27942;47.510;18.966;2022-07-06T08:11:25;1.50;;;1.20;;
42284;SDS011;27942;47.510;18.966;2022-07-06T08:13:51;1.33;;;0.95;;
42284;SDS011;27942;47.510;18.966;2022-07-06T08:16:16;1.50;;;1.08;;
42284;SDS011;27942;47.510;18.966;2022-07-06T08:18:41;2.13;;;1.00;;
42284;SDS011;27942;47.510;18.966;2022-07-06T08:21:07;1.63;;;0.88;;
42284;SDS011;27942;47.510;18.966;2022-07-06T08:23:32;2.03;;;1.08;;
42284;SDS011;27942;47.510;18.966;2022-07-06T08:25:59;1.75;;;0.90;;
42284;SDS011;27942;47.510;18.966;2022-07-06T08:28:25;1.30;;;0.90;;
42284;SDS011;27942;47.510;18.966;2022-07-06T08:30:50;1.60;;;1.08;;
42284;SDS011;27942;47.510;18.966;2022-07-06T08:33:15;1.40;;;0.98;;
42284;SDS011;27942;47.510;18.966;2022-07-06T08:35:40;0.82;;;0.80;;
42284;SDS011;27942;47.510;18.966;2022-07-06T08:38:06;0.98;;;0.73;;
42284;SDS011;27942;47.510;18.966;2022-07-06T08:40:33;2.10;;;0.80;;
42284;SDS011;27942;47.510;18.966;2022-07-06T08:42:59;1.98;;;1.20;;
42284;SDS011;27942;47.510;18.966;2022-07-06T08:45:25;0.90;;;0.65;;
42284;SDS011;27942;47.510;18.966;2022-07-06T08:47:50;2.20;;;1.05;;
42284;SDS011;27942;47.510;18.966;2022-07-06T08:50:15;1.25;;;0.80;;
42284;SDS011;27942;47.510;18.966;2022-07-06T08:52:41;1.00;;;0.85;;
42284;SDS011;27942;47.510;18.966;2022-07-06T08:55:10;1.05;;;0.73;;
42284;SDS011;27942;47.510;18.966;2022-07-06T08:57:37;2.53;;;1.08;;
42284;SDS011;27942;47.510;18.966;2022-07-06T09:00:05;1.90;;;1.10;;
42284;SDS011;27942;47.510;18.966;2022-07-06T09:02:30;1.33;;;1.00;;
42284;SDS011;27942;47.510;18.966;2022-07-06T09:04:55;1.48;;;0.98;;
42284;SDS011;27942;47.510;18.966;2022-07-06T09:07:22;2.55;;;1.13;;
42284;SDS011;27942;47.510;18.966;2022-07-06T09:09:49;1.40;;;0.73;;
42284;SDS011;27942;47.510;18.966;2022-07-06T09:12:14;1.27;;;0.88;;
42284;SDS011;27942;47.510;18.966;2022-07-06T09:14:39;2.08;;;1.05;;
42284;SDS011;27942;47.510;18.966;2022-07-06T09:17:05;2.03;;;1.13;;
42284;SDS011;27942;47.510;18.966;2022-07-06T09:19:32;1.95;;;1.30;;
42284;SDS011;27942;47.510;18.966;2022-07-06T09:21:57;2.10;;;1.08;;
42284;SDS011;27942;47.510;18.966;2022-07-06T09:24:22;1.50;;;0.95;;
42284;SDS011;27942;47.510;18.966;2022-07-06T09:26:48;1.90;;;1.27;;
42284;SDS011;27942;47.510;18.966;2022-07-06T09:29:13;1.67;;;1.17;;
42284;SDS011;27942;47.510;18.966;2022-07-06T09:31:39;0.80;;;0.80;;
42284;SDS011;27942;47.510;18.966;2022-07-06T09:34:06;1.60;;;1.05;;
42284;SDS011;27942;47.510;18.966;2022-07-06T09:36:39;3.70;;;1.00;;
42284;SDS011;27942;47.510;18.966;2022-07-06T09:41:52;1.48;;;0.93;;
42284;SDS011;27942;47.510;18.966;2022-07-06T09:44:20;1.83;;;1.27;;
42284;SDS011;27942;47.510;18.966;2022-07-06T09:46:46;1.48;;;0.90;;
42284;SDS011;27942;47.510;18.966;2022-07-06T09:49:11;1.35;;;1.00;;
42284;SDS011;27942;47.510;18.966;2022-07-06T09:51:37;0.85;;;0.70;;
42284;SDS011;27942;47.510;18.966;2022-07-06T09:54:06;1.02;;;0.88;;
42284;SDS011;27942;47.510;18.966;2022-07-06T09:56:39;1.20;;;0.90;;
42284;SDS011;27942;47.510;18.966;2022-07-06T09:59:11;3.45;;;1.23;;
42284;SDS011;27942;47.510;18.966;2022-07-06T10:01:39;1.67;;;1.00;;
42284;SDS011;27942;47.510;18.966;2022-07-06T10:04:06;1.50;;;0.98;;
42284;SDS011;27942;47.510;18.966;2022-07-06T10:06:31;2.08;;;1.20;;
42284;SDS011;27942;47.510;18.966;2022-07-06T10:08:57;0.88;;;0.65;;
42284;SDS011;27942;47.510;18.966;2022-07-06T10:11:23;2.40;;;0.98;;
42284;SDS011;27942;47.510;18.966;2022-07-06T10:13:48;2.05;;;1.00;;
42284;SDS011;27942;47.510;18.966;2022-07-06T10:16:15;1.20;;;0.90;;
42284;SDS011;27942;47.510;18.966;2022-07-06T10:18:40;2.65;;;1.25;;
42284;SDS011;27942;47.510;18.966;2022-07-06T10:21:06;1.83;;;0.93;;
42284;SDS011;27942;47.510;18.966;2022-07-06T10:23:31;1.52;;;1.00;;
42284;SDS011;27942;47.510;18.966;2022-07-06T10:25:58;1.50;;;1.10;;
42284;SDS011;27942;47.510;18.966;2022-07-06T10:28:23;2.55;;;1.30;;
42284;SDS011;27942;47.510;18.966;2022-07-06T10:30:49;2.03;;;1.00;;
42284;SDS011;27942;47.510;18.966;2022-07-06T10:33:15;2.30;;;1.00;;
42284;SDS011;27942;47.510;18.966;2022-07-06T10:35:40;1.38;;;0.98;;
42284;SDS011;27942;47.510;18.966;2022-07-06T10:38:07;1.90;;;1.20;;
42284;SDS011;27942;47.510;18.966;2022-07-06T10:40:34;1.55;;;1.00;;
42284;SDS011;27942;47.510;18.966;2022-07-06T10:43:18;1.60;;;0.93;;
42284;SDS011;27942;47.510;18.966;2022-07-06T10:50:40;1.13;;;0.82;;
42284;SDS011;27942;47.510;18.966;2022-07-06T10:53:15;1.40;;;0.80;;
42284;SDS011;27942;47.510;18.966;2022-07-06T10:55:45;1.35;;;0.80;;
42284;SDS011;27942;47.510;18.966;2022-07-06T10:58:12;1.95;;;1.25;;
42284;SDS011;27942;47.510;18.966;2022-07-06T11:00:54;0.82;;;0.57;;
42284;SDS011;27942;47.510;18.966;2022-07-06T11:06:00;1.42;;;0.77;;
42284;SDS011;27942;47.510;18.966;2022-07-06T11:11:16;2.45;;;0.90;;
42284;SDS011;27942;47.510;18.966;2022-07-06T11:13:42;1.50;;;0.85;;
42284;SDS011;27942;47.510;18.966;2022-07-06T11:16:08;2.20;;;0.98;;
42284;SDS011;27942;47.510;18.966;2022-07-06T11:18:46;1.55;;;1.00;;
42284;SDS011;27942;47.510;18.966;2022-07-06T11:21:18;0.77;;;0.70;;
42284;SDS011;27942;47.510;18.966;2022-07-06T11:23:48;1.65;;;0.93;;
42284;SDS011;27942;47.510;18.966;2022-07-06T11:26:13;1.63;;;0.80;;
42284;SDS011;27942;47.510;18.966;2022-07-06T11:28:39;1.88;;;1.17;;
42284;SDS011;27942;47.510;18.966;2022-07-06T11:31:04;2.15;;;1.10;;
42284;SDS011;27942;47.510;18.966;2022-07-06T11:33:30;1.17;;;0.70;;
42284;SDS011;27942;47.510;18.966;2022-07-06T11:38:39;2.40;;;0.98;;
42284;SDS011;27942;47.510;18.966;2022-07-06T11:41:04;2.35;;;1.08;;
42284;SDS011;27942;47.510;18.966;2022-07-06T11:43:30;1.13;;;0.60;;
42284;SDS011;27942;47.510;18.966;2022-07-06T11:45:55;2.17;;;1.08;;
42284;SDS011;27942;47.510;18.966;2022-07-06T11:48:20;1.58;;;0.98;;
42284;SDS011;27942;47.510;18.966;2022-07-06T11:51:01;1.77;;;1.10;;
42284;SDS011;27942;47.510;18.966;2022-07-06T11:53:27;3.03;;;1.08;;
42284;SDS011;27942;47.510;18.966;2022-07-06T11:55:53;1.77;;;1.08;;
42284;SDS011;27942;47.510;18.966;2022-07-06T11:58:22;1.40;;;0.95;;
42284;SDS011;27942;47.510;18.966;2022-07-06T12:03:49;0.70;;;0.52;;
42284;SDS011;27942;47.510;18.966;2022-07-06T12:08:41;1.80;;;1.13;;
42284;SDS011;27942;47.510;18.966;2022-07-06T12:11:06;2.38;;;1.13;;
42284;SDS011;27942;47.510;18.966;2022-07-06T12:13:35;1.38;;;1.00;;
42284;SDS011;27942;47.510;18.966;2022-07-06T12:16:08;2.67;;;0.85;;
42284;SDS011;27942;47.510;18.966;2022-07-06T12:18:37;1.63;;;1.02;;
42284;SDS011;27942;47.510;18.966;2022-07-06T12:21:03;1.48;;;1.00;;
42284;SDS011;27942;47.510;18.966;2022-07-06T12:23:37;1.25;;;0.95;;
42284;SDS011;27942;47.510;18.966;2022-07-06T12:26:02;1.00;;;0.80;;
42284;SDS011;27942;47.510;18.966;2022-07-06T12:28:28;2.10;;;1.00;;
42284;SDS011;27942;47.510;18.966;2022-07-06T12:30:53;0.80;;;0.73;;
42284;SDS011;27942;47.510;18.966;2022-07-06T12:33:18;1.92;;;0.93;;
42284;SDS011;27942;47.510;18.966;2022-07-06T12:35:44;2.03;;;1.15;;
42284;SDS011;27942;47.510;18.966;2022-07-06T12:38:09;0.80;;;0.60;;
42284;SDS011;27942;47.510;18.966;2022-07-06T12:40:35;1.23;;;0.80;;
42284;SDS011;27942;47.510;18.966;2022-07-06T12:43:01;1.30;;;0.80;;
42284;SDS011;27942;47.510;18.966;2022-07-06T12:45:27;2.15;;;1.10;;
42284;SDS011;27942;47.510;18.966;2022-07-06T12:47:59;1.48;;;0.80;;
42284;SDS011;27942;47.510;18.966;2022-07-06T12:50:32;1.17;;;0.77;;
42284;SDS011;27942;47.510;18.966;2022-07-06T12:52:58;1.38;;;0.93;;
42284;SDS011;27942;47.510;18.966;2022-07-06T12:55:27;0.90;;;0.73;;
42284;SDS011;27942;47.510;18.966;2022-07-06T12:57:53;1.02;;;0.82;;
42284;SDS011;27942;47.510;18.966;2022-07-06T13:00:19;0.98;;;0.80;;
42284;SDS011;27942;47.510;18.966;2022-07-06T13:02:45;2.60;;;0.75;;
42284;SDS011;27942;47.510;18.966;2022-07-06T13:05:11;1.52;;;0.70;;
42284;SDS011;27942;47.510;18.966;2022-07-06T13:07:37;0.65;;;0.60;;
42284;SDS011;27942;47.510;18.966;2022-07-06T13:10:04;1.25;;;0.60;;
42284;SDS011;27942;47.510;18.966;2022-07-06T13:12:30;0.95;;;0.60;;
42284;SDS011;27942;47.510;18.966;2022-07-06T13:14:55;1.02;;;0.65;;
42284;SDS011;27942;47.510;18.966;2022-07-06T13:17:20;1.02;;;0.70;;
42284;SDS011;27942;47.510;18.966;2022-07-06T13:19:46;1.88;;;0.75;;
42284;SDS011;27942;47.510;18.966;2022-07-06T13:22:11;1.27;;;0.63;;
42284;SDS011;27942;47.510;18.966;2022-07-06T13:24:37;0.65;;;0.63;;
42284;SDS011;27942;47.510;18.966;2022-07-06T13:27:02;0.85;;;0.60;;
42284;SDS011;27942;47.510;18.966;2022-07-06T13:29:27;1.10;;;0.75;;
42284;SDS011;27942;47.510;18.966;2022-07-06T13:31:53;2.15;;;0.70;;
42284;SDS011;27942;47.510;18.966;2022-07-06T13:34:18;1.55;;;0.90;;
42284;SDS011;27942;47.510;18.966;2022-07-06T13:36:43;1.40;;;0.80;;
42284;SDS011;27942;47.510;18.966;2022-07-06T13:39:09;1.10;;;0.65;;
42284;SDS011;27942;47.510;18.966;2022-07-06T13:41:34;1.52;;;0.90;;
42284;SDS011;27942;47.510;18.966;2022-07-06T13:44:00;1.67;;;0.90;;
42284;SDS011;27942;47.510;18.966;2022-07-06T13:46:26;1.08;;;0.75;;
42284;SDS011;27942;47.510;18.966;2022-07-06T13:48:51;1.38;;;0.60;;
42284;SDS011;27942;47.510;18.966;2022-07-06T13:51:17;0.95;;;0.73;;
42284;SDS011;27942;47.510;18.966;2022-07-06T13:53:43;1.10;;;0.80;;
42284;SDS011;27942;47.510;18.966;2022-07-06T13:56:08;1.20;;;0.70;;
42284;SDS011;27942;47.510;18.966;2022-07-06T13:58:34;1.50;;;0.93;;
42284;SDS011;27942;47.510;18.966;2022-07-06T14:00:59;1.10;;;0.75;;
42284;SDS011;27942;47.510;18.966;2022-07-06T14:03:25;1.25;;;0.85;;
42284;SDS011;27942;47.510;18.966;2022-07-06T14:05:55;1.05;;;0.77;;
42284;SDS011;27942;47.510;18.966;2022-07-06T14:08:20;1.80;;;0.80;;
42284;SDS011;27942;47.510;18.966;2022-07-06T14:10:45;1.38;;;0.80;;
42284;SDS011;27942;47.510;18.966;2022-07-06T14:13:11;0.75;;;0.65;;
42284;SDS011;27942;47.510;18.966;2022-07-06T14:15:36;1.23;;;0.73;;
42284;SDS011;27942;47.510;18.966;2022-07-06T14:18:01;2.95;;;0.65;;
42284;SDS011;27942;47.510;18.966;2022-07-06T14:20:26;1.27;;;0.80;;
42284;SDS011;27942;47.510;18.966;2022-07-06T14:22:52;1.05;;;0.60;;
42284;SDS011;27942;47.510;18.966;2022-07-06T14:25:17;0.98;;;0.70;;
42284;SDS011;27942;47.510;18.966;2022-07-06T14:27:42;1.25;;;0.80;;
42284;SDS011;27942;47.510;18.966;2022-07-06T14:30:08;1.80;;;0.60;;
42284;SDS011;27942;47.510;18.966;2022-07-06T14:32:34;1.15;;;0.70;;
42284;SDS011;27942;47.510;18.966;2022-07-06T14:34:59;2.85;;;0.60;;
42284;SDS011;27942;47.510;18.966;2022-07-06T14:37:24;0.55;;;0.45;;
42284;SDS011;27942;47.510;18.966;2022-07-06T14:39:49;0.82;;;0.50;;
42284;SDS011;27942;47.510;18.966;2022-07-06T14:42:15;1.17;;;0.47;;
42284;SDS011;27942;47.510;18.966;2022-07-06T14:44:41;1.23;;;0.88;;
42284;SDS011;27942;47.510;18.966;2022-07-06T14:47:06;1.10;;;0.77;;